createdAt,value
2018-07-19T00:04:52.141Z,58.89
2018-07-19T00:09:49.660Z,58.97
2018-07-19T00:14:47.221Z,59.41
2018-07-19T00:19:44.753Z,60.04
2018-07-19T00:24:42.287Z,60.55
2018-07-19T00:29:39.885Z,61.49
2018-07-19T00:34:40.168Z,61.48
2018-07-19T00:39:40.803Z,62.04
2018-07-19T00:44:39.696Z,61.88
2018-07-19T00:49:37.225Z,62.09
2018-07-19T00:54:34.815Z,61.80
2018-07-19T00:59:32.357Z,62.63
2018-07-19T01:04:31.303Z,63.57
2018-07-19T01:09:28.894Z,63.05
2018-07-19T01:14:26.433Z,62.41
2018-07-19T01:19:23.963Z,63.65
2018-07-19T01:24:21.488Z,63.84
2018-07-19T01:29:19.201Z,64.70
2018-07-19T01:34:18.178Z,65.33
2018-07-19T01:39:15.686Z,65.69
2018-07-19T01:44:13.247Z,66.40
2018-07-19T01:49:10.772Z,65.55
2018-07-19T01:54:08.356Z,66.61
2018-07-19T01:59:05.900Z,67.63
2018-07-19T02:09:08.293Z,68.65
2018-07-19T02:14:05.820Z,68.96
2018-07-19T02:19:03.341Z,68.55
2018-07-19T02:24:01.256Z,68.97
2018-07-19T02:28:58.779Z,69.99
2018-07-19T02:34:02.712Z,70.63
2018-07-19T02:39:00.620Z,71.30
2018-07-19T02:43:58.185Z,71.23
2018-07-19T02:48:55.733Z,71.08
2018-07-19T02:53:53.308Z,70.93
2018-07-19T02:58:50.903Z,70.72
2018-07-19T03:03:57.459Z,70.72
2018-07-19T03:08:55.266Z,70.65
2018-07-19T03:13:52.834Z,71.69
2018-07-19T03:18:50.406Z,72.46
2018-07-19T03:23:48.032Z,72.71
2018-07-19T03:28:45.617Z,71.45
2018-07-19T03:33:56.528Z,72.69
2018-07-19T03:38:54.404Z,72.12
2018-07-19T03:43:51.960Z,72.68
2018-07-19T03:48:49.544Z,72.86
2018-07-19T03:53:47.138Z,73.49
2018-07-19T03:58:44.744Z,73.19
2018-07-19T04:03:47.870Z,72.33
2018-07-19T04:08:45.470Z,70.62
2018-07-19T04:13:43.046Z,70.61
2018-07-19T04:18:40.631Z,72.19
2018-07-19T04:23:38.219Z,72.94
2018-07-19T04:28:35.766Z,73.64
2018-07-19T04:33:38.671Z,74.56
2018-07-19T04:38:36.527Z,74.46
2018-07-19T04:43:34.100Z,74.69
2018-07-19T04:48:31.673Z,73.24
2018-07-19T04:53:29.651Z,73.66
2018-07-19T04:58:27.386Z,73.76
2018-07-19T05:03:28.341Z,72.94
2018-07-19T05:08:26.020Z,72.00
2018-07-19T05:13:23.655Z,71.36
2018-07-19T05:18:21.248Z,69.93
2018-07-19T05:23:18.876Z,69.68
2018-07-19T05:28:16.463Z,67.96
2018-07-19T05:33:14.060Z,66.77
2018-07-19T05:38:11.624Z,64.44
2018-07-19T05:43:09.209Z,62.06
2018-07-19T05:48:06.780Z,59.61
2018-07-19T05:53:04.344Z,56.71
2018-07-19T05:58:01.977Z,54.22
2018-07-19T06:02:59.578Z,51.79
2018-07-19T06:07:57.160Z,48.74
2018-07-19T06:12:54.730Z,45.99
2018-07-19T06:17:52.281Z,42.50
2018-07-19T06:22:49.833Z,42.62
2018-07-19T06:27:47.411Z,38.78
2018-07-19T06:32:45.001Z,40.72
2018-07-19T06:37:42.596Z,38.98
2018-07-19T06:42:40.211Z,37.42
2018-07-19T06:47:37.815Z,36.84
2018-07-19T06:52:35.471Z,34.93
2018-07-19T06:57:33.126Z,32.27
2018-07-19T07:02:30.653Z,37.20
2018-07-19T07:07:28.228Z,34.03
2018-07-19T07:12:25.807Z,33.37
2018-07-19T07:17:23.398Z,31.33
2018-07-19T07:22:20.983Z,31.82
2018-07-19T07:27:18.609Z,33.21
2018-07-19T07:32:16.188Z,33.31
2018-07-19T07:37:13.856Z,33.44
2018-07-19T07:42:11.483Z,31.41
2018-07-19T07:47:09.066Z,32.26
2018-07-19T07:52:06.876Z,30.52
2018-07-19T07:57:09.545Z,30.69
2018-07-19T08:02:18.537Z,29.60
2018-07-19T08:07:20.139Z,27.47
2018-07-19T08:12:24.605Z,29.01
2018-07-19T08:17:35.935Z,28.93
2018-07-19T08:22:45.091Z,25.81
2018-07-19T08:27:54.978Z,26.54
2018-07-19T08:33:02.325Z,28.28
2018-07-19T08:38:12.100Z,26.40
2018-07-19T08:43:18.268Z,25.97
2018-07-19T08:48:29.533Z,24.12
2018-07-19T08:53:31.587Z,26.14
2018-07-19T08:58:29.340Z,25.94
2018-07-19T09:03:28.090Z,22.42
2018-07-19T09:08:26.302Z,22.83
2018-07-19T09:13:24.136Z,22.45
2018-07-19T09:18:21.723Z,21.27
2018-07-19T09:23:19.284Z,22.58
2018-07-19T09:28:16.870Z,23.95
2018-07-19T09:33:14.484Z,24.47
2018-07-19T09:38:12.075Z,22.08
2018-07-19T09:43:09.612Z,22.03
2018-07-19T09:48:07.229Z,26.51
2018-07-19T09:53:04.860Z,20.94
2018-07-19T09:58:02.461Z,23.37
2018-07-19T10:03:00.053Z,27.33
2018-07-19T10:07:57.640Z,22.05
2018-07-19T10:12:55.239Z,23.79
2018-07-19T10:17:52.829Z,24.52
2018-07-19T10:22:56.805Z,24.76
2018-07-19T10:28:00.134Z,20.02
2018-07-19T10:33:03.830Z,20.52
2018-07-19T10:38:05.951Z,21.23
2018-07-19T10:43:07.564Z,19.54
2018-07-19T10:48:05.369Z,19.15
2018-07-19T10:53:03.018Z,24.16
2018-07-19T10:58:00.618Z,21.72
2018-07-19T11:02:58.168Z,22.07
2018-07-19T11:07:55.790Z,22.50
2018-07-19T11:12:53.458Z,25.41
2018-07-19T11:17:51.015Z,22.45
2018-07-19T11:22:48.585Z,23.29
2018-07-19T11:27:46.160Z,21.86
2018-07-19T11:32:43.768Z,26.45
2018-07-19T11:37:41.333Z,25.33
2018-07-19T11:42:38.943Z,21.60
2018-07-19T11:47:36.567Z,20.45
2018-07-19T11:52:34.744Z,21.58
2018-07-19T11:57:32.469Z,19.63
2018-07-19T12:02:30.343Z,19.98
2018-07-19T12:07:27.900Z,22.14
2018-07-19T12:12:25.496Z,21.62
2018-07-19T12:17:23.088Z,21.04
2018-07-19T12:22:22.152Z,22.01
2018-07-19T12:27:19.773Z,24.42
2018-07-19T12:32:17.896Z,20.98
2018-07-19T13:28:21.182Z,32.31
2018-07-19T13:33:18.861Z,32.81
2018-07-19T13:38:16.453Z,32.73
2018-07-19T13:43:15.214Z,33.44
2018-07-19T13:48:12.875Z,36.23
2018-07-19T13:53:36.933Z,35.11
2018-07-19T13:58:35.313Z,31.40
2018-07-19T14:03:32.982Z,30.20
2018-07-19T14:08:30.551Z,28.54
2018-07-19T14:13:28.123Z,28.67
2018-07-19T14:18:25.683Z,27.91
2018-07-19T14:23:23.391Z,28.82
2018-07-19T14:28:21.009Z,29.18
2018-07-19T14:33:18.585Z,29.63
2018-07-19T14:38:16.498Z,33.78
2018-07-19T14:43:14.074Z,33.49
2018-07-19T14:48:11.692Z,30.74
2018-07-19T14:53:10.647Z,30.58
2018-07-19T14:58:08.281Z,31.51
2018-07-19T15:03:06.922Z,30.45
2018-07-19T15:08:15.526Z,31.62
2018-07-19T15:13:14.041Z,30.01
2018-07-19T15:18:12.487Z,30.82
2018-07-19T15:23:10.532Z,30.80
2018-07-19T15:28:10.136Z,31.56
2018-07-19T15:33:07.769Z,31.14
2018-07-19T15:38:11.209Z,31.63
2018-07-19T15:43:10.594Z,31.62
2018-07-19T15:48:10.605Z,33.62
2018-07-19T15:53:08.388Z,29.96
2018-07-19T15:58:06.072Z,31.12
2018-07-19T16:03:05.265Z,31.04
2018-07-19T16:08:03.622Z,31.40
2018-07-19T16:13:02.462Z,31.15
2018-07-19T16:18:02.011Z,28.30
2018-07-19T16:23:01.184Z,28.22
2018-07-19T16:28:00.555Z,28.46
2018-07-19T16:32:58.448Z,28.37
2018-07-19T16:37:59.695Z,28.01
2018-07-19T16:42:58.634Z,29.53
2018-07-19T16:47:56.396Z,32.10
2018-07-19T16:52:56.245Z,30.43
2018-07-19T16:57:55.461Z,30.04
2018-07-19T17:02:57.432Z,28.10
2018-07-19T17:07:56.979Z,26.65
2018-07-19T17:12:55.552Z,23.77
2018-07-19T17:17:53.112Z,26.26
2018-07-19T17:22:51.540Z,24.03
2018-07-19T17:27:49.165Z,26.01
2018-07-19T17:32:48.391Z,28.95
2018-07-19T17:37:49.355Z,28.96
2018-07-19T17:42:50.058Z,27.80
2018-07-19T17:47:47.639Z,29.08
2018-07-19T17:52:45.215Z,29.05
2018-07-19T17:57:45.669Z,28.42
2018-07-19T18:02:43.255Z,30.36
2018-07-19T18:07:42.147Z,29.77
2018-07-19T18:12:39.830Z,31.88
2018-07-19T18:17:37.502Z,33.60
2018-07-19T18:22:35.072Z,34.00
2018-07-19T18:27:32.745Z,32.64
2018-07-19T18:32:30.427Z,37.73
2018-07-19T18:37:28.098Z,39.01
2018-07-19T18:42:30.480Z,40.22
2018-07-19T18:47:28.150Z,40.08
2018-07-19T18:52:25.716Z,41.64
2018-07-19T18:57:27.558Z,42.27
2018-07-19T19:02:25.260Z,45.92
2018-07-19T19:07:22.829Z,41.01
2018-07-19T19:12:21.895Z,42.48
2018-07-19T19:17:19.499Z,42.19
2018-07-19T19:22:17.110Z,44.70
2018-07-19T19:27:14.697Z,44.74
2018-07-19T19:32:12.267Z,47.69
2018-07-19T19:37:09.875Z,46.30
2018-07-19T19:42:09.323Z,47.32
2018-07-19T19:47:06.898Z,46.47
2018-07-19T19:52:11.077Z,47.97
2018-07-19T19:57:09.886Z,50.24
2018-07-19T20:02:07.501Z,52.11
2018-07-19T20:07:05.287Z,54.03
2018-07-19T20:12:04.422Z,56.32
2018-07-19T20:17:03.668Z,56.40
2018-07-19T20:27:38.477Z,54.63
2018-07-19T20:32:36.029Z,54.75
2018-07-19T20:37:33.581Z,56.81
2018-07-19T20:42:31.119Z,57.59
2018-07-19T20:47:28.676Z,57.86
2018-07-19T20:52:26.212Z,58.89
2018-07-19T20:57:23.765Z,57.50
2018-07-19T21:02:22.546Z,56.27
2018-07-19T21:07:20.241Z,55.52
2018-07-19T21:12:19.226Z,57.72
2018-07-19T21:17:16.790Z,60.07
2018-07-19T21:22:14.325Z,61.70
2018-07-19T21:27:11.868Z,61.69
2018-07-19T21:32:09.452Z,60.79
2018-07-19T21:37:11.210Z,61.83
2018-07-19T21:42:12.537Z,63.14
2018-07-19T21:47:13.381Z,63.15
2018-07-19T21:52:15.341Z,61.02
2018-07-19T21:57:16.623Z,62.91
2018-07-19T22:02:14.706Z,61.57
2018-07-19T22:07:12.231Z,63.25
2018-07-19T22:12:09.843Z,63.32
2018-07-19T22:17:07.376Z,63.40
2018-07-19T22:22:04.919Z,63.45
2018-07-19T22:27:02.473Z,63.39
2018-07-19T22:32:00.000Z,63.53
2018-07-19T22:36:57.533Z,64.99
2018-07-19T22:41:56.514Z,65.86
2018-07-19T22:46:54.054Z,65.85
2018-07-19T22:51:51.587Z,66.05
2018-07-19T22:56:49.149Z,65.62
2018-07-19T23:01:46.686Z,67.94
2018-07-19T23:06:44.332Z,67.22
2018-07-19T23:11:45.083Z,63.82
2018-07-19T23:16:42.779Z,61.76
2018-07-19T23:21:40.382Z,62.64
2018-07-19T23:26:37.992Z,62.73
2018-07-19T23:31:35.639Z,62.17
2018-07-19T23:36:40.555Z,62.61
2018-07-19T23:41:51.608Z,64.14
2018-07-19T23:46:53.836Z,63.23
2018-07-19T23:51:51.395Z,65.21
2018-07-19T23:56:48.963Z,63.72
